Time;durP1;ratioP1;P1;durP2;ratioP2;P2;SDS_P1;SDS_P2;PMS_P1;PMS_P2;Temp;Humidity;BMP_temperature;BMP_pressure;BME280_temperature;BME280_humidity;BME280_pressure;Samples;Min_cycle;Max_cycle;Signal;HPM_P1;HPM_P2
2023/05/09 04:31:47;;;;;;;1.17;0.82;;;16.50;82.60;;;;;;5262460;23;20063;-76
2023/05/09 04:34:12;;;;;;;4.45;0.80;;;16.40;82.50;;;;;;4953305;28;20063;-75
2023/05/09 04:36:38;;;;;;;0.80;0.50;;;16.50;82.40;;;;;;4945892;29;20067;-74
2023/05/09 04:39:04;;;;;;;1.15;0.70;;;16.40;82.50;;;;;;4939875;29;20033;-74
2023/05/09 04:41:29;;;;;;;1.30;0.73;;;16.40;82.50;;;;;;4956404;29;20075;-74
2023/05/09 04:43:55;;;;;;;3.78;0.75;;;16.40;82.40;;;;;;4960401;28;20023;-75
2023/05/09 04:46:21;;;;;;;2.13;0.80;;;16.40;82.50;;;;;;4944227;28;20548;-80
2023/05/09 04:48:47;;;;;;;3.83;0.90;;;16.40;82.40;;;;;;4936915;29;20786;-80
2023/05/09 04:51:12;;;;;;;3.55;1.02;;;16.40;82.40;;;;;;4937167;29;20062;-80
2023/05/09 04:53:38;;;;;;;1.00;0.70;;;16.50;82.40;;;;;;4936837;29;20035;-81
2023/05/09 04:56:04;;;;;;;1.40;0.95;;;16.40;82.20;;;;;;4919447;29;20047;-80
2023/05/09 04:58:29;;;;;;;1.80;1.02;;;16.40;82.20;;;;;;4936464;29;20203;-79
2023/05/09 05:00:55;;;;;;;2.80;1.13;;;16.40;82.10;;;;;;4936147;29;20876;-78
2023/05/09 05:03:21;;;;;;;2.72;1.10;;;16.30;82.20;;;;;;4929546;29;20397;-79
2023/05/09 05:05:46;;;;;;;1.95;1.10;;;16.40;82.10;;;;;;4950951;29;20038;-82
2023/05/09 05:08:12;;;;;;;1.33;0.95;;;16.40;82.00;;;;;;4924845;29;20114;-80
2023/05/09 05:10:40;;;;;;;2.72;1.20;;;16.40;82.10;;;;;;4940595;29;20064;-82
2023/05/09 05:13:06;;;;;;;4.40;1.30;;;16.30;82.00;;;;;;4938376;29;20035;-82
2023/05/09 05:15:32;;;;;;;2.30;1.08;;;16.30;81.90;;;;;;4948033;29;20046;-82
2023/05/09 05:17:57;;;;;;;2.58;1.15;;;16.30;81.90;;;;;;4922787;29;20797;-81
2023/05/09 05:20:23;;;;;;;1.77;0.93;;;16.30;81.80;;;;;;4957607;28;20086;-82
2023/05/09 05:22:49;;;;;;;3.42;1.63;;;16.40;81.70;;;;;;4942410;29;20102;-83
2023/05/09 05:25:16;;;;;;;2.30;1.67;;;16.40;81.70;;;;;;4942040;29;20027;-83
2023/05/09 05:27:42;;;;;;;1.55;1.30;;;16.30;81.70;;;;;;4953691;29;20057;-83
2023/05/09 05:30:20;;;;;;;1.80;1.17;;;16.30;81.70;;;;;;4946259;29;20150;-83
2023/05/09 05:32:45;;;;;;;2.50;1.40;;;16.30;81.60;;;;;;4956108;29;20030;-84
2023/05/09 05:35:11;;;;;;;1.88;1.30;;;16.40;81.50;;;;;;4955438;29;20102;-84
2023/05/09 05:37:38;;;;;;;4.72;1.33;;;16.40;81.50;;;;;;4955942;28;20046;-82
2023/05/09 05:40:05;;;;;;;3.22;1.38;;;16.30;81.40;;;;;;4941621;29;20027;-82
2023/05/09 05:42:31;;;;;;;3.03;1.35;;;16.40;81.30;;;;;;4957905;29;20034;-82
2023/05/09 05:45:03;;;;;;;3.47;1.45;;;16.40;81.30;;;;;;4955301;29;20106;-82
2023/05/09 05:47:32;;;;;;;3.10;1.55;;;16.40;81.30;;;;;;4937972;29;20024;-82
2023/05/09 05:49:58;;;;;;;1.83;1.30;;;16.40;81.30;;;;;;4923597;29;20027;-82
2023/05/09 05:52:25;;;;;;;2.92;1.40;;;16.30;81.30;;;;;;4921928;29;20035;-82
2023/05/09 05:54:51;;;;;;;3.88;1.40;;;16.40;81.30;;;;;;4922082;29;20418;-82
2023/05/09 05:57:16;;;;;;;3.10;1.45;;;16.30;81.30;;;;;;4939635;29;20041;-82
2023/05/09 05:59:42;;;;;;;4.28;1.70;;;16.30;81.30;;;;;;4943411;28;20486;-82
2023/05/09 06:02:07;;;;;;;2.40;1.40;;;16.30;81.30;;;;;;4960156;28;20027;-82
2023/05/09 06:04:33;;;;;;;4.78;1.52;;;16.30;81.30;;;;;;4954904;29;20023;-82
2023/05/09 06:06:59;;;;;;;2.47;1.27;;;16.30;81.20;;;;;;4958371;29;20027;-82
2023/05/09 06:09:24;;;;;;;3.17;1.42;;;16.30;81.20;;;;;;4957577;29;20083;-82
2023/05/09 06:11:50;;;;;;;2.65;1.35;;;16.30;81.10;;;;;;4918330;29;20053;-82
2023/05/09 06:14:16;;;;;;;3.13;1.20;;;16.40;81.10;;;;;;4937427;29;20094;-82
2023/05/09 06:16:41;;;;;;;2.85;1.27;;;16.50;80.90;;;;;;4937158;29;20070;-82
2023/05/09 06:19:07;;;;;;;5.85;1.48;;;16.50;80.80;;;;;;4939015;29;20035;-82
2023/05/09 06:21:33;;;;;;;3.88;1.30;;;16.50;80.80;;;;;;4939244;29;20039;-82
2023/05/09 06:23:59;;;;;;;3.65;1.27;;;16.50;80.70;;;;;;4939467;29;20031;-82
2023/05/09 06:26:25;;;;;;;2.80;1.35;;;16.50;80.80;;;;;;4938883;29;20024;-82
2023/05/09 06:28:50;;;;;;;6.00;1.50;;;16.50;81.00;;;;;;4938801;29;20128;-82
2023/05/09 06:31:16;;;;;;;3.88;1.52;;;16.50;81.00;;;;;;4938059;29;20071;-82
2023/05/09 06:33:42;;;;;;;2.22;1.90;;;16.50;81.00;;;;;;4940876;29;20043;-82
2023/05/09 06:36:07;;;;;;;3.08;1.85;;;16.50;81.00;;;;;;4940694;29;20035;-82
2023/05/09 06:38:34;;;;;;;4.32;1.52;;;16.50;81.20;;;;;;4958099;29;20031;-82
2023/05/09 06:41:00;;;;;;;4.32;2.08;;;16.50;80.90;;;;;;4954889;29;20019;-82
2023/05/09 06:43:26;;;;;;;4.75;2.38;;;16.50;81.00;;;;;;4921456;29;20494;-83
2023/05/09 06:45:51;;;;;;;5.13;1.98;;;16.50;81.00;;;;;;4927605;29;20031;-82
2023/05/09 06:48:17;;;;;;;3.58;2.13;;;16.50;80.80;;;;;;4925289;29;20032;-82
2023/05/09 06:50:42;;;;;;;3.38;1.90;;;16.60;80.90;;;;;;4946997;29;20043;-82
2023/05/09 06:53:08;;;;;;;3.60;2.45;;;16.50;80.80;;;;;;4954604;28;20031;-79
2023/05/09 06:55:34;;;;;;;4.63;2.00;;;16.50;80.80;;;;;;4954279;28;20038;-79
2023/05/09 06:57:59;;;;;;;5.25;2.40;;;16.40;80.90;;;;;;4948045;29;20157;-79
2023/05/09 07:00:25;;;;;;;5.28;2.75;;;16.50;80.70;;;;;;4946469;29;20024;-79
2023/05/09 07:02:51;;;;;;;4.07;2.28;;;16.50;80.80;;;;;;4948437;29;20023;-79
2023/05/09 07:05:17;;;;;;;5.85;2.47;;;16.50;80.80;;;;;;4948204;29;20032;-78
2023/05/09 07:07:42;;;;;;;6.40;2.63;;;16.50;80.70;;;;;;4946487;29;20031;-79
2023/05/09 07:10:09;;;;;;;5.20;2.45;;;16.60;80.70;;;;;;4950219;29;20090;-79
2023/05/09 07:12:34;;;;;;;7.53;2.90;;;16.60;80.50;;;;;;4947350;29;20082;-79
2023/05/09 07:15:00;;;;;;;7.18;3.13;;;16.60;80.70;;;;;;4946854;29;20517;-79
2023/05/09 07:17:25;;;;;;;5.85;3.00;;;16.70;80.50;;;;;;4926188;29;20768;-81
2023/05/09 07:19:51;;;;;;;6.55;3.08;;;16.70;80.30;;;;;;4923006;29;20034;-86
2023/05/09 07:22:17;;;;;;;6.20;2.90;;;16.80;80.00;;;;;;4948942;29;20036;-85
2023/05/09 07:24:43;;;;;;;5.72;3.03;;;16.80;79.90;;;;;;4944879;29;20020;-85
2023/05/09 07:27:09;;;;;;;6.85;3.22;;;16.90;79.80;;;;;;4940799;28;20106;-85
2023/05/09 07:29:34;;;;;;;6.05;2.80;;;17.00;79.80;;;;;;4958187;28;20106;-85
2023/05/09 07:32:00;;;;;;;6.05;3.13;;;17.00;79.70;;;;;;4959105;28;20055;-85
2023/05/09 07:34:26;;;;;;;5.00;2.60;;;17.00;79.80;;;;;;4944297;29;20062;-85
2023/05/09 07:36:51;;;;;;;6.05;3.10;;;17.00;79.60;;;;;;4948407;29;20141;-85
2023/05/09 07:39:17;;;;;;;10.90;3.53;;;17.00;79.80;;;;;;4939922;29;20036;-84
2023/05/09 07:41:43;;;;;;;8.73;3.35;;;16.90;79.80;;;;;;4925126;29;20032;-85
2023/05/09 07:44:08;;;;;;;13.93;4.05;;;16.90;79.70;;;;;;4921084;29;20024;-85
2023/05/09 07:46:39;;;;;;;7.10;3.35;;;16.90;79.90;;;;;;4938231;29;20095;-85
2023/05/09 07:49:05;;;;;;;7.18;3.58;;;16.90;79.90;;;;;;4937963;29;20047;-85
2023/05/09 07:51:31;;;;;;;8.75;3.72;;;16.90;79.90;;;;;;4937929;29;20909;-84
2023/05/09 07:53:56;;;;;;;11.23;4.13;;;16.90;80.00;;;;;;4952217;28;20055;-85
2023/05/09 07:56:22;;;;;;;7.07;3.78;;;17.10;79.90;;;;;;4943341;29;20047;-85
2023/05/09 07:58:48;;;;;;;8.23;3.10;;;17.10;80.10;;;;;;4920820;29;20024;-85
2023/05/09 08:01:14;;;;;;;6.13;2.90;;;17.10;79.70;;;;;;4939442;29;20024;-85
2023/05/09 08:03:40;;;;;;;8.10;3.10;;;17.20;79.50;;;;;;4929449;29;20031;-85
2023/05/09 08:06:06;;;;;;;6.40;3.10;;;17.30;79.60;;;;;;4924276;29;20261;-85
2023/05/09 08:08:31;;;;;;;5.90;3.15;;;17.50;79.50;;;;;;4928889;29;20103;-85
2023/05/09 08:10:57;;;;;;;7.53;2.92;;;17.60;79.20;;;;;;4942480;29;20031;-85
2023/05/09 08:13:23;;;;;;;8.05;3.35;;;17.80;78.70;;;;;;4960873;29;20490;-85
2023/05/09 08:15:49;;;;;;;5.60;3.05;;;17.80;78.50;;;;;;4941102;29;20066;-85
2023/05/09 08:18:14;;;;;;;6.05;3.10;;;17.80;78.70;;;;;;4948504;29;20039;-84
2023/05/09 08:20:40;;;;;;;6.18;3.55;;;17.80;78.90;;;;;;4942481;29;20024;-84
2023/05/09 08:23:06;;;;;;;5.15;2.80;;;17.80;78.50;;;;;;4941707;29;20059;-86
2023/05/09 08:25:32;;;;;;;5.05;2.78;;;17.80;78.30;;;;;;4928579;29;20027;-85
2023/05/09 08:27:58;;;;;;;5.13;2.75;;;17.80;78.50;;;;;;4931043;29;20024;-84
2023/05/09 08:30:24;;;;;;;4.88;2.10;;;17.80;78.70;;;;;;4949725;29;20028;-84
2023/05/09 08:32:49;;;;;;;5.90;3.05;;;17.70;78.60;;;;;;4934146;29;20023;-84
2023/05/09 08:35:15;;;;;;;9.15;2.70;;;17.60;78.70;;;;;;4931675;29;20024;-84
2023/05/09 08:37:41;;;;;;;5.75;2.85;;;17.60;78.70;;;;;;4950440;29;20114;-84
2023/05/09 08:40:07;;;;;;;6.75;2.88;;;17.50;78.70;;;;;;4933339;29;20414;-84
2023/05/09 08:42:35;;;;;;;5.35;2.92;;;17.60;78.80;;;;;;4949480;29;20028;-84
2023/05/09 08:45:09;;;;;;;6.72;2.70;;;17.80;78.80;;;;;;4949948;29;20425;-84
2023/05/09 08:47:36;;;;;;;4.47;2.45;;;18.40;78.10;;;;;;4931465;29;20024;-84
2023/05/09 08:50:03;;;;;;;4.00;2.17;;;18.80;76.90;;;;;;4947499;29;20028;-84
2023/05/09 08:52:32;;;;;;;4.22;2.00;;;19.20;76.20;;;;;;4923969;29;20038;-83
2023/05/09 08:55:05;;;;;;;6.47;1.90;;;19.30;75.60;;;;;;4940541;29;20028;-84
2023/05/09 08:57:34;;;;;;;4.65;2.50;;;19.50;75.50;;;;;;4937704;29;20043;-83
2023/05/09 09:00:00;;;;;;;4.53;2.10;;;19.80;74.70;;;;;;4955312;29;20393;-83
2023/05/09 09:02:25;;;;;;;5.97;1.98;;;20.30;73.30;;;;;;4956237;28;20106;-84
2023/05/09 09:04:53;;;;;;;5.00;1.70;;;20.40;72.60;;;;;;4955327;28;20478;-84
2023/05/09 09:07:19;;;;;;;7.13;2.40;;;20.20;72.10;;;;;;4931200;29;20031;-83
2023/05/09 09:09:46;;;;;;;6.90;2.70;;;20.00;72.70;;;;;;4951724;29;20031;-83
2023/05/09 09:12:14;;;;;;;4.07;1.95;;;19.80;73.20;;;;;;4925805;28;20127;-83
2023/05/09 09:14:48;;;;;;;5.63;2.40;;;19.50;73.80;;;;;;4935650;29;20172;-83
2023/05/09 09:17:17;;;;;;;6.55;2.38;;;19.30;74.20;;;;;;4955214;29;20027;-83
2023/05/09 09:19:44;;;;;;;6.15;2.80;;;19.10;74.80;;;;;;4952963;29;20050;-83
2023/05/09 09:22:14;;;;;;;4.38;2.35;;;19.00;75.30;;;;;;4934071;29;20019;-83
2023/05/09 09:24:40;;;;;;;;;;;19.00;75.50;;;;;;4945774;29;20458;-83
2023/05/09 09:27:06;;;;;;;4.88;2.67;;;19.20;75.30;;;;;;4943131;29;19914;-84
2023/05/09 09:29:33;;;;;;;4.60;2.90;;;19.30;75.00;;;;;;4941733;29;20047;-79
2023/05/09 09:32:02;;;;;;;4.25;2.40;;;19.90;74.50;;;;;;4918987;29;20047;-79
2023/05/09 09:34:28;;;;;;;8.10;2.92;;;20.10;73.40;;;;;;4941081;29;20035;-79
2023/05/09 09:36:54;;;;;;;6.57;2.75;;;19.90;73.30;;;;;;4959713;28;20042;-78
2023/05/09 09:39:20;;;;;;;7.00;2.72;;;19.70;73.80;;;;;;4960244;28;20038;-78
2023/05/09 09:41:47;;;;;;;5.30;2.80;;;19.50;74.20;;;;;;4948579;29;20490;-79
2023/05/09 09:44:18;;;;;;;5.25;2.65;;;20.50;72.90;;;;;;4939595;29;20028;-79
2023/05/09 09:46:43;;;;;;;7.25;2.13;;;21.00;72.00;;;;;;4939379;29;20020;-79
2023/05/09 09:49:13;;;;;;;4.07;2.08;;;21.10;71.00;;;;;;4929462;29;20092;-79
2023/05/09 09:51:42;;;;;;;5.97;2.15;;;21.10;70.70;;;;;;4949930;28;20023;-79
2023/05/09 09:54:09;;;;;;;3.38;1.92;;;21.20;70.10;;;;;;4939382;29;20043;-79
2023/05/09 09:56:49;;;;;;;4.75;1.90;;;21.40;70.30;;;;;;4939686;29;20498;-77
2023/05/09 09:59:19;;;;;;;4.57;2.00;;;22.00;69.30;;;;;;4938061;29;20067;-77
2023/05/09 10:02:05;;;;;;;2.72;1.42;;;22.20;67.70;;;;;;4931339;29;20488;-77
2023/05/09 10:04:36;;;;;;;3.97;1.90;;;22.90;66.80;;;;;;4958485;29;20058;-77
2023/05/09 10:07:07;;;;;;;3.45;1.50;;;23.20;65.70;;;;;;4958561;29;20034;-77
2023/05/09 10:09:34;;;;;;;2.97;1.58;;;22.80;65.20;;;;;;4957843;29;20031;-77
2023/05/09 10:12:05;;;;;;;5.72;1.60;;;22.30;66.30;;;;;;4925660;29;20036;-77
2023/05/09 10:14:33;;;;;;;3.25;1.33;;;21.70;67.50;;;;;;4921801;29;20115;-77
2023/05/09 10:17:01;;;;;;;4.82;1.88;;;21.30;67.70;;;;;;4947171;29;20031;-77
2023/05/09 10:19:31;;;;;;;4.05;1.50;;;21.50;68.70;;;;;;4929774;29;20032;-77
2023/05/09 10:21:57;;;;;;;;;;;22.80;67.00;;;;;;4955743;29;20087;-77
2023/05/09 10:24:28;;;;;;;4.40;1.35;;;23.00;65.60;;;;;;4951693;28;19918;-77
2023/05/09 10:27:02;;;;;;;3.28;1.30;;;23.00;65.10;;;;;;4922032;29;20031;-77
2023/05/09 10:29:31;;;;;;;4.22;1.30;;;22.90;64.30;;;;;;4922188;29;20086;-77
2023/05/09 10:31:59;;;;;;;5.15;2.20;;;22.90;64.80;;;;;;4938429;29;20055;-77
2023/05/09 10:34:27;;;;;;;4.75;1.80;;;22.60;64.00;;;;;;4953515;29;20091;-77
2023/05/09 10:36:54;;;;;;;4.05;1.20;;;22.40;63.80;;;;;;4957752;29;20031;-77
2023/05/09 10:39:20;;;;;;;4.00;1.48;;;22.20;63.40;;;;;;4957920;29;20023;-77
2023/05/09 10:41:48;;;;;;;3.92;1.48;;;22.00;64.50;;;;;;4945615;29;20024;-76
2023/05/09 10:44:15;;;;;;;2.65;1.40;;;21.90;65.30;;;;;;4938645;29;20030;-78
2023/05/09 10:46:41;;;;;;;3.05;1.13;;;21.80;63.20;;;;;;4921269;29;20024;-77
2023/05/09 10:49:07;;;;;;;1.95;1.40;;;21.80;63.50;;;;;;4940080;29;20035;-77
2023/05/09 10:51:33;;;;;;;2.60;1.10;;;21.60;66.60;;;;;;4940352;29;20043;-77
2023/05/09 10:53:59;;;;;;;2.85;1.27;;;21.70;67.30;;;;;;4940628;29;20031;-77
2023/05/09 10:56:29;;;;;;;3.00;1.30;;;21.60;67.10;;;;;;4957450;29;20031;-78
2023/05/09 10:58:55;;;;;;;3.80;1.77;;;21.70;67.20;;;;;;4929215;29;20047;-76
2023/05/09 11:01:35;;;;;;;2.80;1.40;;;21.70;67.40;;;;;;4938350;29;20031;-77
2023/05/09 11:04:11;;;;;;;2.35;1.35;;;21.70;66.20;;;;;;4932463;29;20028;-77
2023/05/09 11:06:43;;;;;;;3.30;1.80;;;21.60;67.00;;;;;;4939690;29;20038;-77
2023/05/09 11:09:34;;;;;;;4.82;1.73;;;21.50;68.60;;;;;;4940368;29;20036;-77
2023/05/09 11:12:07;;;;;;;3.35;1.30;;;21.50;65.40;;;;;;4932354;29;20433;-77
2023/05/09 11:14:42;;;;;;;1.63;0.98;;;21.50;66.00;;;;;;4938533;29;20036;-77
2023/05/09 11:17:13;;;;;;;3.10;0.90;;;21.60;66.90;;;;;;4920990;29;20047;-77
2023/05/09 11:19:44;;;;;;;7.30;2.00;;;21.70;65.90;;;;;;4957016;29;20118;-76
2023/05/09 11:22:21;;;;;;;2.03;1.00;;;21.70;66.60;;;;;;4957419;29;20442;-76
2023/05/09 11:24:49;;;;;;;2.63;1.15;;;21.70;66.30;;;;;;4957788;29;20030;-76
2023/05/09 11:27:15;;;;;;;1.55;0.90;;;21.80;65.80;;;;;;4939680;29;20033;-77
2023/05/09 11:29:58;;;;;;;1.30;0.70;;;21.80;65.50;;;;;;4936691;29;20020;-76
2023/05/09 11:32:39;;;;;;;1.65;1.27;;;22.00;64.20;;;;;;4935759;29;20051;-77
2023/05/09 11:35:13;;;;;;;3.50;1.00;;;22.00;64.60;;;;;;4922750;29;20031;-77
2023/05/09 11:37:50;;;;;;;3.50;1.00;;;22.10;66.90;;;;;;4925081;29;20032;-77
2023/05/09 11:40:17;;;;;;;1.67;0.80;;;22.00;65.90;;;;;;4951086;28;20394;-77
2023/05/09 11:42:48;;;;;;;2.13;1.25;;;21.90;65.10;;;;;;4941959;29;20498;-77
2023/05/09 11:45:15;;;;;;;3.95;1.40;;;22.00;65.70;;;;;;4942356;29;20078;-77
2023/05/09 11:47:41;;;;;;;1.73;1.00;;;22.10;64.90;;;;;;4941719;29;20024;-77
2023/05/09 11:50:12;;;;;;;2.25;1.02;;;21.90;64.90;;;;;;4944026;28;20075;-77
2023/05/09 11:52:38;;;;;;;4.80;1.20;;;22.20;65.20;;;;;;4950542;28;20043;-77
2023/05/09 11:55:09;;;;;;;2.53;1.20;;;22.40;63.80;;;;;;4924532;29;20027;-78
2023/05/09 11:57:45;;;;;;;2.30;1.48;;;22.50;64.00;;;;;;4948161;29;20088;-77
2023/05/09 12:00:12;;;;;;;1.65;1.27;;;22.40;63.70;;;;;;4943651;29;20037;-77
2023/05/09 12:02:38;;;;;;;1.83;0.93;;;22.20;63.10;;;;;;4960584;29;20540;-77
2023/05/09 12:05:11;;;;;;;1.52;0.95;;;22.20;63.00;;;;;;4960309;29;20031;-77
2023/05/09 12:07:41;;;;;;;2.75;1.27;;;22.10;63.50;;;;;;4960566;29;20031;-77
2023/05/09 12:10:07;;;;;;;1.60;1.00;;;22.00;63.90;;;;;;4954017;29;20036;-77
2023/05/09 12:12:35;;;;;;;1.23;0.85;;;22.10;63.50;;;;;;4960737;29;20267;-77
2023/05/09 12:15:07;;;;;;;1.98;1.00;;;22.20;63.80;;;;;;4960744;29;20028;-77
2023/05/09 12:17:33;;;;;;;3.42;1.50;;;22.20;62.80;;;;;;4944118;29;20056;-77
2023/05/09 12:20:00;;;;;;;2.95;1.00;;;22.30;64.00;;;;;;4928841;29;20043;-77
2023/05/09 12:22:26;;;;;;;2.85;1.48;;;22.60;64.10;;;;;;4940085;29;20118;-78
2023/05/09 12:24:53;;;;;;;1.25;0.70;;;22.70;63.80;;;;;;4923966;29;20047;-77
2023/05/09 12:27:19;;;;;;;1.20;0.60;;;22.90;63.90;;;;;;4924301;29;20157;-77
2023/05/09 12:29:47;;;;;;;1.73;0.80;;;23.00;61.20;;;;;;4923992;29;20062;-77
2023/05/09 12:32:14;;;;;;;1.05;0.47;;;22.80;59.40;;;;;;4940610;29;20078;-78
2023/05/09 12:34:41;;;;;;;1.33;0.80;;;22.60;60.50;;;;;;4939769;29;20028;-77
2023/05/09 12:37:17;;;;;;;1.65;0.75;;;22.40;61.90;;;;;;4960175;29;20031;-77
2023/05/09 12:40:07;;;;;;;2.70;0.73;;;22.20;61.90;;;;;;4960144;29;20027;-77
2023/05/09 12:42:34;;;;;;;2.35;0.68;;;22.30;63.60;;;;;;4959847;29;20161;-78
2023/05/09 12:45:06;;;;;;;2.38;1.02;;;22.20;63.60;;;;;;4959889;29;20035;-77
2023/05/09 12:47:32;;;;;;;1.10;0.68;;;22.10;61.90;;;;;;4941213;29;20027;-77
2023/05/09 12:50:03;;;;;;;2.42;0.90;;;22.00;62.40;;;;;;4939515;29;20040;-77
2023/05/09 12:52:42;;;;;;;2.70;0.95;;;21.80;62.50;;;;;;4923548;29;20091;-77
2023/05/09 12:55:11;;;;;;;1.65;0.90;;;21.70;63.30;;;;;;4923552;29;20031;-77
2023/05/09 12:57:38;;;;;;;1.60;1.00;;;21.70;63.70;;;;;;4940506;29;20395;-78
2023/05/09 13:00:06;;;;;;;1.80;0.88;;;21.60;63.90;;;;;;4940725;29;20075;-77
2023/05/09 13:02:37;;;;;;;1.98;1.05;;;21.50;64.60;;;;;;4923425;29;20589;-77
2023/05/09 13:05:10;;;;;;;2.05;1.23;;;21.40;64.40;;;;;;4923558;29;20047;-77
2023/05/09 13:07:46;;;;;;;4.75;1.33;;;21.30;64.20;;;;;;4932801;29;20027;-76
2023/05/09 13:10:27;;;;;;;1.60;1.30;;;21.10;64.70;;;;;;4948827;29;20036;-77
2023/05/09 13:12:53;;;;;;;3.88;1.20;;;21.20;65.30;;;;;;4942150;29;21059;-77
2023/05/09 13:15:20;;;;;;;1.95;1.27;;;21.20;65.10;;;;;;4957733;29;20059;-77
2023/05/09 13:17:50;;;;;;;4.00;1.38;;;21.40;65.00;;;;;;4922998;29;20024;-77
2023/05/09 13:20:15;;;;;;;2.72;1.10;;;21.30;65.00;;;;;;4922822;29;20039;-77
2023/05/09 13:22:42;;;;;;;2.83;1.33;;;21.00;65.40;;;;;;4923363;29;20034;-77
2023/05/09 13:25:09;;;;;;;3.97;1.45;;;20.80;66.20;;;;;;4940081;29;20027;-77
2023/05/09 13:27:34;;;;;;;5.18;1.50;;;20.50;67.80;;;;;;4940223;29;20020;-77
2023/05/09 13:30:00;;;;;;;5.18;1.60;;;20.20;68.80;;;;;;4922767;29;20055;-77
2023/05/09 13:32:26;;;;;;;4.50;1.70;;;20.10;70.20;;;;;;4927323;29;20125;-77
2023/05/09 13:34:52;;;;;;;3.15;1.65;;;20.00;71.00;;;;;;4954631;29;20031;-77
2023/05/09 13:37:17;;;;;;;2.72;1.80;;;19.90;71.80;;;;;;4959028;29;20118;-77
2023/05/09 13:39:43;;;;;;;2.42;1.48;;;19.80;72.10;;;;;;4945115;29;20032;-78
2023/05/09 13:42:08;;;;;;;2.28;1.17;;;19.80;72.30;;;;;;4940141;29;20034;-78
2023/05/09 13:44:34;;;;;;;5.35;1.50;;;19.80;72.50;;;;;;4941126;29;20032;-78
2023/05/09 13:47:00;;;;;;;2.72;1.33;;;19.60;72.90;;;;;;4941560;29;20503;-78
2023/05/09 13:49:26;;;;;;;4.57;1.10;;;19.40;72.00;;;;;;4923386;29;20046;-78
2023/05/09 13:51:53;;;;;;;2.15;1.15;;;19.30;73.10;;;;;;4939752;29;20044;-78
2023/05/09 13:54:20;;;;;;;4.93;1.42;;;19.30;72.10;;;;;;4939878;29;20099;-79
2023/05/09 13:56:46;;;;;;;3.47;1.17;;;19.70;72.90;;;;;;4939563;29;20030;-79
2023/05/09 13:59:12;;;;;;;3.28;1.25;;;19.90;72.50;;;;;;4956037;28;20490;-79
2023/05/09 14:01:37;;;;;;;1.77;0.73;;;20.30;72.50;;;;;;4941375;29;20118;-79
2023/05/09 14:04:03;;;;;;;1.98;1.10;;;20.60;71.70;;;;;;4940653;29;20042;-79
2023/05/09 14:06:29;;;;;;;1.58;0.60;;;20.80;72.20;;;;;;4937143;29;20039;-78
2023/05/09 14:08:57;;;;;;;0.77;0.32;;;20.80;69.90;;;;;;4929974;29;20035;-79
2023/05/09 14:11:24;;;;;;;1.05;0.40;;;20.60;69.80;;;;;;4958464;29;20023;-78
2023/05/09 14:13:51;;;;;;;2.03;0.40;;;20.60;70.10;;;;;;4940885;29;20085;-78
2023/05/09 14:16:17;;;;;;;1.30;0.40;;;20.70;68.90;;;;;;4954503;29;20422;-79
2023/05/09 14:18:43;;;;;;;1.08;0.32;;;20.70;68.90;;;;;;4940769;29;20035;-78
2023/05/09 14:21:08;;;;;;;1.67;0.60;;;20.80;67.80;;;;;;4941176;29;20058;-78
2023/05/09 14:23:34;;;;;;;2.78;0.55;;;20.90;68.20;;;;;;4958469;29;20031;-78
2023/05/09 14:25:59;;;;;;;1.02;0.50;;;21.00;68.50;;;;;;4939760;29;20083;-78
2023/05/09 14:28:25;;;;;;;1.13;0.47;;;21.10;68.40;;;;;;4921898;29;20087;-78
2023/05/09 14:30:51;;;;;;;2.58;0.40;;;21.20;68.30;;;;;;4921660;29;20082;-78
2023/05/09 14:33:17;;;;;;;4.03;0.40;;;21.20;68.60;;;;;;4929418;29;20834;-78
2023/05/09 14:35:43;;;;;;;0.80;0.40;;;21.20;68.70;;;;;;4940709;29;20577;-78
2023/05/09 14:38:08;;;;;;;0.60;0.25;;;21.30;66.70;;;;;;4957157;29;20039;-78
2023/05/09 14:40:34;;;;;;;1.38;0.55;;;21.30;66.70;;;;;;4958055;29;20023;-78
2023/05/09 14:43:01;;;;;;;0.82;0.35;;;21.40;66.30;;;;;;4940068;29;20034;-78
2023/05/09 14:45:31;;;;;;;1.33;0.40;;;21.30;66.60;;;;;;4957732;29;20031;-78
2023/05/09 14:47:57;;;;;;;1.08;0.40;;;21.40;66.10;;;;;;4957884;29;20177;-78
2023/05/09 14:50:23;;;;;;;0.60;0.30;;;21.40;66.40;;;;;;4955633;29;20146;-78
2023/05/09 14:52:49;;;;;;;1.95;0.70;;;21.30;65.20;;;;;;4938653;29;20087;-78
2023/05/09 14:55:16;;;;;;;0.73;0.38;;;21.30;64.00;;;;;;4938810;29;20023;-78
2023/05/09 14:57:42;;;;;;;0.60;0.40;;;21.30;64.80;;;;;;4938651;29;20059;-78
2023/05/09 15:00:09;;;;;;;2.28;0.70;;;21.20;63.50;;;;;;4937248;29;20031;-78
2023/05/09 15:02:35;;;;;;;1.20;0.50;;;21.00;64.20;;;;;;4937864;29;20034;-78
2023/05/09 15:05:01;;;;;;;1.00;0.43;;;21.30;65.20;;;;;;4944945;29;20070;-78
2023/05/09 15:07:27;;;;;;;0.77;0.47;;;21.30;65.10;;;;;;4957867;29;20478;-78
2023/05/09 15:09:53;;;;;;;2.53;1.27;;;21.40;63.90;;;;;;4936237;29;20039;-78
2023/05/09 15:12:19;;;;;;;1.15;0.50;;;21.30;63.00;;;;;;4957135;28;20131;-78
2023/05/09 15:14:45;;;;;;;0.82;0.50;;;21.30;63.30;;;;;;4957489;29;20506;-78
2023/05/09 15:17:10;;;;;;;1.90;0.55;;;21.30;63.20;;;;;;4936282;29;20040;-78
2023/05/09 15:19:36;;;;;;;2.33;0.70;;;21.50;63.20;;;;;;4921203;29;20387;-78
2023/05/09 15:22:07;;;;;;;2.47;0.55;;;21.60;62.60;;;;;;4921223;29;20162;-78
2023/05/09 15:24:33;;;;;;;1.17;0.57;;;21.50;63.00;;;;;;4938603;29;20124;-78
2023/05/09 15:26:59;;;;;;;2.00;0.50;;;21.60;63.60;;;;;;4940921;29;20059;-78
2023/05/09 15:29:25;;;;;;;3.95;0.80;;;21.60;62.90;;;;;;4954315;29;20041;-78
2023/05/09 15:31:51;;;;;;;2.78;0.77;;;21.30;59.60;;;;;;4948996;29;20047;-79
2023/05/09 15:34:21;;;;;;;3.17;0.75;;;21.30;61.60;;;;;;4945606;28;20027;-84
2023/05/09 15:36:55;;;;;;;3.97;1.00;;;21.40;62.10;;;;;;4928282;29;20039;-86
2023/05/09 15:39:21;;;;;;;2.35;0.85;;;21.40;61.90;;;;;;4951758;28;20027;-84
2023/05/09 15:41:49;;;;;;;2.10;1.00;;;21.50;61.70;;;;;;4930580;29;20507;-84
2023/05/09 15:44:15;;;;;;;2.75;0.80;;;21.50;60.90;;;;;;4928145;29;20023;-85
2023/05/09 15:46:40;;;;;;;5.13;1.27;;;21.20;61.30;;;;;;4928184;29;20042;-86
2023/05/09 15:49:06;;;;;;;1.80;0.80;;;21.00;61.70;;;;;;4951119;29;20417;-81
2023/05/09 15:51:32;;;;;;;6.07;1.27;;;20.90;61.70;;;;;;4948959;29;20035;-81
2023/05/09 15:53:57;;;;;;;3.65;1.05;;;20.80;62.30;;;;;;4948423;29;20028;-75
2023/05/09 15:56:23;;;;;;;3.50;1.05;;;20.70;62.50;;;;;;4965319;28;20047;-81
2023/05/09 15:58:49;;;;;;;2.80;1.00;;;20.50;62.50;;;;;;4941112;29;20032;-77
2023/05/09 16:01:14;;;;;;;2.65;1.08;;;20.50;63.30;;;;;;4930940;29;20565;-79
2023/05/09 16:03:40;;;;;;;2.95;0.85;;;20.40;62.50;;;;;;4945768;29;20078;-77
2023/05/09 16:06:06;;;;;;;2.53;1.23;;;20.40;62.60;;;;;;4948638;29;20055;-77
2023/05/09 16:08:32;;;;;;;4.38;1.38;;;20.30;61.20;;;;;;4946262;29;20023;-77
2023/05/09 16:10:59;;;;;;;8.10;1.20;;;20.30;60.20;;;;;;4945367;29;20094;-78
2023/05/09 16:13:25;;;;;;;3.25;1.45;;;20.30;62.00;;;;;;4928409;29;20023;-85
2023/05/09 16:15:51;;;;;;;4.32;1.20;;;20.20;60.70;;;;;;4934344;29;20043;-77
2023/05/09 16:18:17;;;;;;;4.97;1.38;;;20.10;61.00;;;;;;4939688;29;20031;-77
2023/05/09 16:20:43;;;;;;;6.15;1.50;;;20.20;62.10;;;;;;4947890;29;20057;-78
2023/05/09 16:23:59;;;;;;;2.45;1.30;;;20.20;63.00;;;;;;4940592;29;20028;-77
2023/05/09 16:26:25;;;;;;;4.22;1.17;;;20.20;62.80;;;;;;4933269;29;20027;-77
2023/05/09 16:28:50;;;;;;;7.05;1.38;;;20.00;62.60;;;;;;4932167;29;20036;-77
2023/05/09 16:31:16;;;;;;;4.85;1.20;;;19.90;62.30;;;;;;4943543;28;20061;-78
2023/05/09 16:33:42;;;;;;;3.13;0.93;;;19.70;59.40;;;;;;4929065;29;20032;-77
2023/05/09 16:36:08;;;;;;;2.47;0.98;;;19.70;60.10;;;;;;4929330;29;20679;-77
2023/05/09 16:38:34;;;;;;;3.58;0.88;;;19.70;60.60;;;;;;4945114;28;20083;-77
2023/05/09 16:40:59;;;;;;;8.48;1.20;;;19.80;60.50;;;;;;4944007;29;20483;-77
2023/05/09 16:43:25;;;;;;;2.80;0.80;;;20.00;61.00;;;;;;4929546;29;20030;-85
2023/05/09 16:45:51;;;;;;;3.53;0.75;;;20.20;59.70;;;;;;4934348;29;20114;-78
2023/05/09 16:48:17;;;;;;;2.15;0.77;;;20.30;60.40;;;;;;4941982;29;20135;-78
2023/05/09 16:50:44;;;;;;;3.42;0.77;;;20.40;60.10;;;;;;4939131;29;20042;-77
2023/05/09 16:53:11;;;;;;;2.65;0.80;;;20.50;60.50;;;;;;4931918;29;20425;-77
2023/05/09 16:55:37;;;;;;;1.73;0.60;;;20.30;60.00;;;;;;4932386;29;20086;-77
2023/05/09 16:58:02;;;;;;;2.63;0.98;;;20.10;60.80;;;;;;4951510;28;20038;-77
2023/05/09 17:00:28;;;;;;;2.10;0.70;;;20.00;61.00;;;;;;4947246;29;20430;-77
2023/05/09 17:02:54;;;;;;;2.90;0.70;;;19.80;61.90;;;;;;4926922;29;20027;-78
2023/05/09 17:05:20;;;;;;;1.65;0.70;;;19.60;62.90;;;;;;4929922;29;20027;-77
2023/05/09 17:07:46;;;;;;;4.25;1.00;;;19.60;63.20;;;;;;4929524;29;20019;-78
2023/05/09 17:10:12;;;;;;;5.65;1.10;;;19.60;62.80;;;;;;4953315;29;20036;-77
2023/05/09 17:12:38;;;;;;;4.38;1.17;;;19.70;62.90;;;;;;4931893;29;20031;-76
2023/05/09 17:15:07;;;;;;;2.50;0.80;;;19.80;63.00;;;;;;4951219;28;20038;-79
2023/05/09 17:17:33;;;;;;;4.55;1.30;;;19.70;62.10;;;;;;4956469;28;20098;-79
2023/05/09 17:20:03;;;;;;;2.20;1.60;;;19.60;63.00;;;;;;4947937;29;20098;-78